Middle Wallop, United Kingdom
Current Conditions -  °F | °C
As of 10:23 AM on Monday 26 Jan 2015 (Local Time) from EGVP Reporting Station
Broken Clouds Broken Clouds  
Wind Chill: 50°   Ceiling: 25000
Heat Index: 50°   Visibility: 6mi
Dew Point: 46°   Wind: 12mph
Humidity: 87%   Direction: 300°WNW
Pressure: 30.21"   Gusts: NA
Location:  51.15°N, 1.57°W
Report Text: EGVP 261023Z 30010KT 9999 FEW010 SCT035 BKN250 10/08 Q1023 BLU TEMPO SCT010 GRN
Loading
Personal Weather Stations






























Interactive Weather Map New forecast layout! Learn more

10-Day Weather Forecast

Advertisements
Track Severe Weather on mobile